Time;durP1;ratioP1;P1;durP2;ratioP2;P2;SDS_P1;SDS_P2;PMS_P1;PMS_P2;Temp;Humidity;BMP_temperature;BMP_pressure;BME280_temperature;BME280_humidity;BME280_pressure;Samples;Min_cycle;Max_cycle;Signal;HPM_P1;HPM_P2
2022/01/17 00:00:22;;;;;;;20.73;2.45;;;;;;;;;;4969010;28;105988;-70
2022/01/17 00:02:50;;;;;;;16.98;2.28;;;;;;;;;;4968076;28;106209;-70
2022/01/17 00:05:18;;;;;;;13.88;2.03;;;;;;;;;;4962975;28;107778;-70
2022/01/17 00:07:44;;;;;;;18.35;2.50;;;;;;;;;;4967173;28;107333;-70
2022/01/17 00:10:11;;;;;;;27.15;2.65;;;;;;;;;;4961401;28;106082;-71
2022/01/17 00:12:44;;;;;;;14.38;1.75;;;;;;;;;;4970627;28;107007;-72
2022/01/17 00:15:18;;;;;;;22.02;3.17;;;;;;;;;;4964438;28;106845;-71
2022/01/17 00:17:49;;;;;;;22.33;1.95;;;;;;;;;;4954580;28;107633;-71
2022/01/17 00:20:24;;;;;;;19.88;2.90;;;;;;;;;;4961490;28;106157;-72
2022/01/17 00:22:51;;;;;;;17.50;2.08;;;;;;;;;;4967994;28;107125;-71
2022/01/17 00:25:18;;;;;;;17.27;2.22;;;;;;;;;;4959399;28;109784;-71
2022/01/17 00:27:44;;;;;;;10.55;1.73;;;;;;;;;;4936924;28;106404;-71
2022/01/17 00:30:11;;;;;;;18.77;2.20;;;;;;;;;;4966951;28;106908;-72
2022/01/17 00:32:37;;;;;;;7.03;1.65;;;;;;;;;;4952761;28;107603;-73
2022/01/17 00:35:04;;;;;;;16.38;1.73;;;;;;;;;;4973081;28;106283;-71
2022/01/17 00:37:30;;;;;;;19.05;2.03;;;;;;;;;;4934796;28;107460;-71
2022/01/17 00:39:57;;;;;;;14.65;1.83;;;;;;;;;;4939811;28;106465;-71
2022/01/17 00:42:23;;;;;;;18.05;2.50;;;;;;;;;;4968404;28;107499;-73
2022/01/17 00:44:49;;;;;;;13.52;1.70;;;;;;;;;;4966918;28;108089;-71
2022/01/17 00:47:16;;;;;;;10.40;1.40;;;;;;;;;;4964252;28;106694;-72
2022/01/17 00:49:42;;;;;;;16.38;2.25;;;;;;;;;;4965594;28;107081;-71
2022/01/17 00:52:09;;;;;;;15.05;1.77;;;;;;;;;;4967409;28;107902;-71
2022/01/17 00:54:35;;;;;;;19.10;1.92;;;;;;;;;;4966946;28;106119;-72
2022/01/17 00:57:02;;;;;;;11.70;2.60;;;;;;;;;;4970413;28;106856;-71
2022/01/17 00:59:29;;;;;;;17.00;2.13;;;;;;;;;;4964002;28;106617;-71
2022/01/17 01:01:55;;;;;;;17.60;2.17;;;;;;;;;;4966200;28;108796;-71
2022/01/17 01:04:22;;;;;;;14.13;2.17;;;;;;;;;;4963791;28;106100;-72
2022/01/17 01:06:49;;;;;;;14.70;1.73;;;;;;;;;;4968596;28;106902;-71
2022/01/17 01:09:15;;;;;;;15.55;1.65;;;;;;;;;;4954860;28;106833;-72
2022/01/17 01:11:42;;;;;;;17.15;1.88;;;;;;;;;;4946139;28;107441;-71
2022/01/17 01:14:08;;;;;;;16.73;2.25;;;;;;;;;;4966216;28;106191;-72
2022/01/17 01:16:36;;;;;;;23.88;2.40;;;;;;;;;;4968654;28;105859;-71
2022/01/17 01:19:19;;;;;;;15.73;2.25;;;;;;;;;;4970346;28;107119;-71
2022/01/17 01:22:11;;;;;;;18.92;2.20;;;;;;;;;;4958577;28;106011;-71
2022/01/17 01:30:07;;;;;;;16.83;1.70;;;;;;;;;;4962394;28;105854;-71
2022/01/17 01:32:45;;;;;;;15.98;1.75;;;;;;;;;;4953004;28;107788;-71
2022/01/17 01:35:15;;;;;;;13.23;1.80;;;;;;;;;;4950909;28;107775;-71
2022/01/17 01:37:44;;;;;;;12.57;2.15;;;;;;;;;;4938890;28;108580;-70
2022/01/17 01:40:10;;;;;;;13.85;1.77;;;;;;;;;;4961753;28;107384;-71
2022/01/17 01:42:37;;;;;;;14.52;1.60;;;;;;;;;;4946592;28;107221;-72
2022/01/17 01:45:07;;;;;;;13.57;2.05;;;;;;;;;;4961174;28;107489;-71
2022/01/17 01:47:34;;;;;;;19.50;1.70;;;;;;;;;;4964472;28;106129;-70
2022/01/17 01:50:00;;;;;;;16.05;1.75;;;;;;;;;;4950956;28;108252;-71
2022/01/17 01:52:27;;;;;;;18.67;2.13;;;;;;;;;;4962357;28;106737;-71
2022/01/17 01:54:53;;;;;;;17.50;3.63;;;;;;;;;;4958314;28;106302;-70
2022/01/17 01:57:19;;;;;;;17.40;2.10;;;;;;;;;;4964830;28;106933;-69
2022/01/17 01:59:46;;;;;;;13.45;1.95;;;;;;;;;;4961558;28;107567;-69
2022/01/17 02:02:13;;;;;;;15.90;1.83;;;;;;;;;;4970583;28;106204;-69
2022/01/17 02:04:40;;;;;;;14.38;1.80;;;;;;;;;;4967336;28;106007;-70
2022/01/17 02:07:06;;;;;;;20.02;1.65;;;;;;;;;;4968601;28;106207;-69
2022/01/17 02:09:33;;;;;;;17.83;2.17;;;;;;;;;;4966589;28;106843;-69
2022/01/17 02:12:02;;;;;;;14.25;2.05;;;;;;;;;;4977430;22;106389;31
2022/01/17 02:14:29;;;;;;;15.93;2.00;;;;;;;;;;4942225;28;107173;-69
2022/01/17 02:17:00;;;;;;;8.05;1.67;;;;;;;;;;4945944;28;108035;-68
2022/01/17 02:19:28;;;;;;;24.48;2.08;;;;;;;;;;4953711;28;106902;-68
2022/01/17 02:21:55;;;;;;;13.95;1.52;;;;;;;;;;4945121;28;107459;-68
2022/01/17 02:24:22;;;;;;;13.93;1.70;;;;;;;;;;4963728;28;106290;-68
2022/01/17 02:26:50;;;;;;;25.25;2.08;;;;;;;;;;4953517;28;107503;-68
2022/01/17 02:29:16;;;;;;;15.30;1.95;;;;;;;;;;4949779;28;106723;-68
2022/01/17 02:31:43;;;;;;;16.40;2.00;;;;;;;;;;4958213;28;107544;-69
2022/01/17 02:34:10;;;;;;;22.27;2.20;;;;;;;;;;4955194;28;106726;-68
2022/01/17 02:36:36;;;;;;;14.38;2.63;;;;;;;;;;4948651;28;107146;-68
2022/01/17 02:39:04;;;;;;;21.67;2.10;;;;;;;;;;4948728;28;106546;-68
2022/01/17 02:41:32;;;;;;;17.83;1.98;;;;;;;;;;4947398;28;105956;-69
2022/01/17 02:44:00;;;;;;;17.80;1.55;;;;;;;;;;4933405;28;106955;-68
2022/01/17 02:46:27;;;;;;;15.25;2.00;;;;;;;;;;4965642;28;106881;-68
2022/01/17 02:48:55;;;;;;;18.35;2.20;;;;;;;;;;4949991;28;107041;-68
2022/01/17 02:51:21;;;;;;;12.63;1.30;;;;;;;;;;4952508;28;107332;-68
2022/01/17 02:53:48;;;;;;;24.02;2.30;;;;;;;;;;4959478;28;106473;-68
2022/01/17 02:56:15;;;;;;;16.73;2.08;;;;;;;;;;4962033;28;106954;-68
2022/01/17 02:58:42;;;;;;;16.58;2.20;;;;;;;;;;4955690;28;107423;-68
2022/01/17 03:01:11;;;;;;;12.20;1.50;;;;;;;;;;4961348;28;106695;-68
2022/01/17 03:03:38;;;;;;;18.52;1.88;;;;;;;;;;4954405;28;108257;-68
2022/01/17 03:06:04;;;;;;;16.58;1.95;;;;;;;;;;4960858;28;106445;-68
2022/01/17 03:08:32;;;;;;;10.75;1.60;;;;;;;;;;4953242;28;105847;-68
2022/01/17 03:11:00;;;;;;;20.80;1.95;;;;;;;;;;4950095;28;107059;-68
2022/01/17 03:13:31;;;;;;;20.45;1.77;;;;;;;;;;4948661;28;106687;-68
2022/01/17 03:15:59;;;;;;;9.25;1.30;;;;;;;;;;4951512;28;107413;-68
2022/01/17 03:18:28;;;;;;;21.27;1.90;;;;;;;;;;4941526;28;110651;-68
2022/01/17 03:20:54;;;;;;;17.17;1.52;;;;;;;;;;4906816;28;107733;-68
2022/01/17 03:23:21;;;;;;;17.35;2.95;;;;;;;;;;4948056;28;107008;-68
2022/01/17 03:25:47;;;;;;;17.05;1.83;;;;;;;;;;4950060;28;107493;-68
2022/01/17 03:28:14;;;;;;;12.13;1.55;;;;;;;;;;4947664;28;107441;-69
2022/01/17 03:30:40;;;;;;;9.10;2.15;;;;;;;;;;4931630;28;107045;-68
2022/01/17 03:33:08;;;;;;;16.77;1.92;;;;;;;;;;4943310;28;106164;-68
2022/01/17 03:35:36;;;;;;;15.82;2.38;;;;;;;;;;4950728;28;108083;-68
2022/01/17 03:38:02;;;;;;;20.95;2.10;;;;;;;;;;4949687;28;107430;-69
2022/01/17 03:40:29;;;;;;;13.40;1.67;;;;;;;;;;4949878;28;106319;-68
2022/01/17 03:42:55;;;;;;;15.98;1.80;;;;;;;;;;4950374;28;106402;-68
2022/01/17 03:45:21;;;;;;;14.10;1.98;;;;;;;;;;4948096;28;106504;-68
2022/01/17 03:47:48;;;;;;;12.25;1.30;;;;;;;;;;4949935;28;106019;-68
2022/01/17 03:50:17;;;;;;;17.92;1.90;;;;;;;;;;4943218;28;108698;-68
2022/01/17 03:52:43;;;;;;;13.13;1.42;;;;;;;;;;4952030;28;106153;-68
2022/01/17 03:55:12;;;;;;;16.50;2.40;;;;;;;;;;4947629;28;106174;-69
2022/01/17 03:57:38;;;;;;;18.00;1.55;;;;;;;;;;4948041;28;106417;-68
2022/01/17 04:00:06;;;;;;;19.33;1.50;;;;;;;;;;4950625;28;106506;-68
2022/01/17 04:02:37;;;;;;;17.27;1.90;;;;;;;;;;4949087;28;106172;-70
2022/01/17 04:05:04;;;;;;;18.55;2.13;;;;;;;;;;4944353;28;108420;-69
2022/01/17 04:07:30;;;;;;;18.23;2.70;;;;;;;;;;4931957;28;106721;-68
2022/01/17 04:09:57;;;;;;;16.85;2.05;;;;;;;;;;4942068;28;106593;-68
2022/01/17 04:12:23;;;;;;;13.38;2.03;;;;;;;;;;4950926;28;106453;-70
2022/01/17 04:14:54;;;;;;;17.33;2.55;;;;;;;;;;4950876;28;106731;-68
2022/01/17 04:17:23;;;;;;;15.70;2.03;;;;;;;;;;4946758;28;106971;-68
2022/01/17 04:19:52;;;;;;;26.23;2.15;;;;;;;;;;4947817;28;106704;-68
2022/01/17 04:22:19;;;;;;;19.33;2.92;;;;;;;;;;4941686;28;106880;-68
2022/01/17 04:24:46;;;;;;;21.60;4.72;;;;;;;;;;4942723;28;106748;-68
2022/01/17 04:27:12;;;;;;;17.85;2.50;;;;;;;;;;4949196;28;106574;-67
2022/01/17 04:29:39;;;;;;;16.63;1.85;;;;;;;;;;4945432;28;106540;-68
2022/01/17 04:32:05;;;;;;;17.85;1.65;;;;;;;;;;4949696;28;108161;-68
2022/01/17 04:34:34;;;;;;;16.70;1.65;;;;;;;;;;4950445;28;106453;-67
2022/01/17 04:37:02;;;;;;;21.17;2.22;;;;;;;;;;4948827;28;107106;-67
2022/01/17 04:39:28;;;;;;;21.65;2.25;;;;;;;;;;4947428;28;106485;-67
2022/01/17 04:41:56;;;;;;;23.15;2.33;;;;;;;;;;4928605;28;107677;-67
2022/01/17 04:47:08;;;;;;;14.57;1.75;;;;;;;;;;4947024;28;107207;-67
2022/01/17 04:49:34;;;;;;;11.48;1.60;;;;;;;;;;4948999;28;106351;-68
2022/01/17 04:52:00;;;;;;;12.43;1.77;;;;;;;;;;4927700;28;108939;-67
2022/01/17 04:54:44;;;;;;;19.90;2.35;;;;;;;;;;4948820;28;108159;-68
2022/01/17 04:57:12;;;;;;;20.25;2.10;;;;;;;;;;4946753;28;107018;-67
2022/01/17 04:59:39;;;;;;;23.55;1.85;;;;;;;;;;4948275;28;106552;-68
2022/01/17 05:02:06;;;;;;;25.10;2.90;;;;;;;;;;4948061;28;106542;-68
2022/01/17 05:04:33;;;;;;;16.27;2.35;;;;;;;;;;4930711;28;107583;-68
2022/01/17 05:06:59;;;;;;;19.77;2.20;;;;;;;;;;4919439;28;107176;-68
2022/01/17 05:09:26;;;;;;;23.00;3.08;;;;;;;;;;4949040;28;106198;-68
2022/01/17 05:11:52;;;;;;;16.15;2.20;;;;;;;;;;4947479;28;107436;-67
2022/01/17 05:14:19;;;;;;;20.52;2.85;;;;;;;;;;4940811;28;106096;-68
2022/01/17 05:16:50;;;;;;;16.92;2.75;;;;;;;;;;4954424;28;107801;-67
2022/01/17 05:22:02;;;;;;;17.52;2.72;;;;;;;;;;4959598;28;108666;-67
2022/01/17 05:24:29;;;;;;;28.77;2.97;;;;;;;;;;4949401;28;106989;-67
2022/01/17 05:26:55;;;;;;;23.98;3.47;;;;;;;;;;4931253;28;107045;-67
2022/01/17 05:29:22;;;;;;;29.27;3.88;;;;;;;;;;4945486;28;106886;-68
2022/01/17 05:31:48;;;;;;;11.07;3.00;;;;;;;;;;4952894;28;106539;-68
2022/01/17 05:34:14;;;;;;;22.70;3.83;;;;;;;;;;4952626;28;106379;-69
2022/01/17 05:36:41;;;;;;;20.17;3.05;;;;;;;;;;4952355;28;106509;-68
2022/01/17 05:39:07;;;;;;;21.40;3.38;;;;;;;;;;4930070;28;107403;-69
2022/01/17 05:41:34;;;;;;;27.08;4.18;;;;;;;;;;4957414;28;106436;-68
2022/01/17 05:44:00;;;;;;;27.02;4.07;;;;;;;;;;4930391;28;107153;-67
2022/01/17 05:46:27;;;;;;;22.38;4.07;;;;;;;;;;4954686;28;108084;-68
2022/01/17 05:48:53;;;;;;;27.85;4.88;;;;;;;;;;4935266;28;107755;-68
2022/01/17 05:51:19;;;;;;;23.45;4.07;;;;;;;;;;4952381;28;107617;-68
2022/01/17 05:53:46;;;;;;;21.23;4.20;;;;;;;;;;4951220;28;106161;-68
2022/01/17 05:56:12;;;;;;;34.45;5.07;;;;;;;;;;4932693;28;107030;-67
2022/01/17 05:58:38;;;;;;;20.63;5.30;;;;;;;;;;4950702;28;106443;-69
2022/01/17 06:01:06;;;;;;;22.58;5.07;;;;;;;;;;4952215;28;106200;-68
2022/01/17 06:03:33;;;;;;;21.67;4.65;;;;;;;;;;4955629;28;107445;-68
2022/01/17 06:05:59;;;;;;;32.17;4.97;;;;;;;;;;4951562;28;106216;-68
2022/01/17 06:08:25;;;;;;;16.60;4.65;;;;;;;;;;4929922;28;108945;-69
2022/01/17 06:10:52;;;;;;;32.72;5.30;;;;;;;;;;4931425;28;108235;-68
2022/01/17 06:13:18;;;;;;;32.20;5.68;;;;;;;;;;4949227;28;106465;-67
2022/01/17 06:15:45;;;;;;;25.05;6.38;;;;;;;;;;4947291;28;106953;-67
2022/01/17 06:18:11;;;;;;;38.25;8.48;;;;;;;;;;4953214;28;107647;-68
2022/01/17 06:20:37;;;;;;;24.70;6.90;;;;;;;;;;4931695;28;106054;-68
2022/01/17 06:23:04;;;;;;;27.13;6.00;;;;;;;;;;4954601;28;107891;-67
2022/01/17 06:25:30;;;;;;;38.17;7.10;;;;;;;;;;4953186;28;105655;-68
2022/01/17 06:27:57;;;;;;;30.92;7.53;;;;;;;;;;4958462;28;107262;-68
2022/01/17 06:30:23;;;;;;;26.70;7.20;;;;;;;;;;4955693;28;107656;-70
2022/01/17 06:32:50;;;;;;;24.67;7.10;;;;;;;;;;4957208;28;106790;-67
2022/01/17 06:35:16;;;;;;;32.45;8.32;;;;;;;;;;4954225;28;108540;-68
2022/01/17 06:37:44;;;;;;;32.58;7.50;;;;;;;;;;4957097;28;107854;-68
2022/01/17 06:40:11;;;;;;;35.10;8.80;;;;;;;;;;4950653;28;106695;-68
2022/01/17 06:42:38;;;;;;;30.15;8.43;;;;;;;;;;4957986;28;106093;-68
2022/01/17 06:45:05;;;;;;;40.90;9.10;;;;;;;;;;4952691;28;106645;-69
2022/01/17 06:47:32;;;;;;;43.53;9.68;;;;;;;;;;4954683;28;106596;-68
2022/01/17 06:49:58;;;;;;;36.17;9.73;;;;;;;;;;4950764;28;106634;-68
2022/01/17 06:52:25;;;;;;;34.83;9.77;;;;;;;;;;4950273;28;106654;-69
2022/01/17 06:54:52;;;;;;;36.20;10.55;;;;;;;;;;4948193;28;107299;-69
2022/01/17 06:57:19;;;;;;;32.03;10.65;;;;;;;;;;4946667;28;106694;-69
2022/01/17 06:59:45;;;;;;;32.38;10.82;;;;;;;;;;4946041;28;106226;-70
2022/01/17 07:02:12;;;;;;;41.22;12.48;;;;;;;;;;4950773;28;106299;-69
2022/01/17 07:04:38;;;;;;;39.88;12.35;;;;;;;;;;4953155;28;107497;-71
2022/01/17 07:07:05;;;;;;;45.05;11.95;;;;;;;;;;4934104;28;107480;-68
2022/01/17 07:09:31;;;;;;;37.75;12.02;;;;;;;;;;4931509;28;107582;-69
2022/01/17 07:12:00;;;;;;;40.60;12.75;;;;;;;;;;4949333;28;106900;-68
2022/01/17 07:14:27;;;;;;;46.38;13.35;;;;;;;;;;4950874;28;106753;-69
2022/01/17 07:16:54;;;;;;;49.47;12.40;;;;;;;;;;4949392;28;107123;-68
2022/01/17 07:19:20;;;;;;;41.33;12.90;;;;;;;;;;4946161;28;106453;-69
2022/01/17 07:21:47;;;;;;;53.35;12.93;;;;;;;;;;4948740;28;106816;-69
2022/01/17 07:24:33;;;;;;;47.97;13.70;;;;;;;;;;4947339;28;107554;-68
2022/01/17 07:27:00;;;;;;;42.65;13.88;;;;;;;;;;4933041;28;107077;-68
2022/01/17 07:29:26;;;;;;;49.75;14.35;;;;;;;;;;4949194;28;105819;-68
2022/01/17 07:31:53;;;;;;;44.63;13.95;;;;;;;;;;4950770;28;107525;-68
2022/01/17 07:34:20;;;;;;;44.30;14.65;;;;;;;;;;4950225;28;106835;-69
2022/01/17 07:36:46;;;;;;;41.15;13.77;;;;;;;;;;4948435;28;107328;-71
2022/01/17 07:39:15;;;;;;;47.90;13.93;;;;;;;;;;4929889;28;107065;-69
2022/01/17 07:41:43;;;;;;;43.05;14.13;;;;;;;;;;4949166;28;106764;-69
2022/01/17 07:44:19;;;;;;;42.40;13.13;;;;;;;;;;4947639;28;109257;-70
2022/01/17 07:46:57;;;;;;;45.17;13.77;;;;;;;;;;4949859;28;106648;-69
2022/01/17 07:49:25;;;;;;;46.20;13.98;;;;;;;;;;4948446;28;107356;-68
2022/01/17 07:52:01;;;;;;;46.63;12.35;;;;;;;;;;4952542;28;107262;-67
2022/01/17 07:54:29;;;;;;;40.45;12.32;;;;;;;;;;4944123;28;108327;-67
2022/01/17 07:56:56;;;;;;;36.72;13.00;;;;;;;;;;4948479;28;107284;-66
2022/01/17 07:59:23;;;;;;;44.97;12.25;;;;;;;;;;4949489;28;106183;-69
2022/01/17 08:01:49;;;;;;;40.92;12.65;;;;;;;;;;4949660;28;107023;-66
2022/01/17 08:04:16;;;;;;;44.42;11.30;;;;;;;;;;4948446;28;107739;-67
2022/01/17 08:06:42;;;;;;;39.90;12.05;;;;;;;;;;4949962;28;106228;-67
2022/01/17 08:09:11;;;;;;;37.67;10.15;;;;;;;;;;4944255;28;108052;-67
2022/01/17 08:11:58;;;;;;;36.15;9.88;;;;;;;;;;4947980;28;106689;-67
2022/01/17 08:14:24;;;;;;;42.00;9.68;;;;;;;;;;4952544;28;106779;-67
2022/01/17 08:16:51;;;;;;;31.00;8.82;;;;;;;;;;4947709;28;108043;-67
2022/01/17 08:19:18;;;;;;;31.55;9.35;;;;;;;;;;4948948;28;107304;-67
2022/01/17 08:21:46;;;;;;;33.50;8.50;;;;;;;;;;4948557;28;106988;-67
2022/01/17 08:24:13;;;;;;;35.30;8.68;;;;;;;;;;4948545;28;107321;-67
2022/01/17 08:26:42;;;;;;;33.28;8.23;;;;;;;;;;4949248;28;106051;-67
2022/01/17 08:29:09;;;;;;;27.00;8.10;;;;;;;;;;4932015;28;106721;-67
2022/01/17 08:31:36;;;;;;;32.15;7.68;;;;;;;;;;4947879;28;106571;-67
2022/01/17 08:34:02;;;;;;;42.65;7.82;;;;;;;;;;4952503;28;106844;-67
2022/01/17 08:36:29;;;;;;;37.72;7.03;;;;;;;;;;4947967;28;107113;-66
2022/01/17 08:38:55;;;;;;;28.98;6.53;;;;;;;;;;4948900;28;106208;-67
2022/01/17 08:41:21;;;;;;;22.67;5.47;;;;;;;;;;4948708;28;106190;-67
2022/01/17 08:43:48;;;;;;;24.70;6.03;;;;;;;;;;4948040;28;108166;-67
2022/01/17 08:46:15;;;;;;;31.60;5.68;;;;;;;;;;4941108;28;107047;-67
2022/01/17 08:48:41;;;;;;;33.00;6.00;;;;;;;;;;4931447;28;107838;-67
2022/01/17 08:51:08;;;;;;;26.73;5.60;;;;;;;;;;4939391;28;107387;-67
2022/01/17 08:53:34;;;;;;;31.42;6.10;;;;;;;;;;4937136;28;107446;-67
2022/01/17 08:56:01;;;;;;;23.23;4.60;;;;;;;;;;4950987;28;107312;-67
2022/01/17 08:58:27;;;;;;;22.58;5.55;;;;;;;;;;4945812;28;106001;-67
2022/01/17 09:00:56;;;;;;;24.10;4.35;;;;;;;;;;4949666;28;106315;-67
2022/01/17 09:03:23;;;;;;;30.38;5.45;;;;;;;;;;4945255;28;107078;-69
2022/01/17 09:05:51;;;;;;;28.48;4.53;;;;;;;;;;4948657;28;105985;-66
2022/01/17 09:08:18;;;;;;;28.40;4.25;;;;;;;;;;4956827;28;106459;-67
2022/01/17 09:10:45;;;;;;;30.20;4.60;;;;;;;;;;4953123;28;107623;-67
2022/01/17 09:13:11;;;;;;;24.65;5.45;;;;;;;;;;4960279;28;107595;-67
2022/01/17 09:15:38;;;;;;;40.13;4.68;;;;;;;;;;4960689;28;107497;-67
2022/01/17 09:18:05;;;;;;;22.42;4.00;;;;;;;;;;4963185;28;107436;-66
2022/01/17 09:20:34;;;;;;;23.30;4.10;;;;;;;;;;4958643;28;109470;-66
2022/01/17 09:23:00;;;;;;;;;;;;;;;;;;4935472;28;108657;-67
2022/01/17 09:25:27;;;;;;;29.50;4.57;;;;;;;;;;4948723;28;123612;-67
2022/01/17 09:27:53;;;;;;;25.55;5.47;;;;;;;;;;4956770;28;109574;-67
2022/01/17 09:30:20;;;;;;;29.23;4.88;;;;;;;;;;4958370;28;107404;-67
2022/01/17 09:32:48;;;;;;;25.13;4.60;;;;;;;;;;4950849;28;105916;-67
2022/01/17 09:35:14;;;;;;;27.50;4.03;;;;;;;;;;4950573;28;107256;-67
2022/01/17 09:37:41;;;;;;;25.13;4.00;;;;;;;;;;4951513;28;107316;-66
2022/01/17 09:40:09;;;;;;;28.67;4.15;;;;;;;;;;4963699;28;107276;-69
2022/01/17 09:42:37;;;;;;;28.90;4.40;;;;;;;;;;4953948;28;107243;-66
2022/01/17 09:45:05;;;;;;;27.75;4.47;;;;;;;;;;4950343;28;106108;-68
2022/01/17 09:47:33;;;;;;;23.67;3.85;;;;;;;;;;4957378;28;107041;-67
2022/01/17 09:50:01;;;;;;;26.63;4.03;;;;;;;;;;4960350;28;107479;-66
2022/01/17 09:52:36;;;;;;;40.88;5.10;;;;;;;;;;4938199;28;106822;-67
2022/01/17 09:55:05;;;;;;;24.88;3.47;;;;;;;;;;4953318;28;107430;-66
2022/01/17 09:57:34;;;;;;;30.88;4.82;;;;;;;;;;4950563;28;106959;-66
2022/01/17 10:00:00;;;;;;;22.20;3.27;;;;;;;;;;4942469;28;106213;-66
2022/01/17 10:02:27;;;;;;;26.95;3.92;;;;;;;;;;4955374;28;108122;-67
2022/01/17 10:04:54;;;;;;;29.98;5.00;;;;;;;;;;4956873;28;106086;-66
2022/01/17 10:07:20;;;;;;;26.80;4.53;;;;;;;;;;4936192;28;107190;-66
2022/01/17 10:09:55;;;;;;;31.75;3.45;;;;;;;;;;4941726;28;107589;-68
2022/01/17 10:12:21;;;;;;;29.52;3.72;;;;;;;;;;4946929;28;105534;-67
2022/01/17 10:14:58;;;;;;;22.88;3.35;;;;;;;;;;4948116;28;106646;-66
2022/01/17 10:17:41;;;;;;;27.13;3.50;;;;;;;;;;4947258;28;107321;-66
2022/01/17 10:20:09;;;;;;;28.85;3.70;;;;;;;;;;4939806;28;106692;-67
2022/01/17 10:22:46;;;;;;;32.13;4.07;;;;;;;;;;4945825;28;107196;-66
2022/01/17 10:25:24;;;;;;;36.45;4.50;;;;;;;;;;4950441;28;107454;-69
2022/01/17 10:28:21;;;;;;;24.75;3.97;;;;;;;;;;4941286;28;107852;-68
2022/01/17 10:31:18;;;;;;;23.90;3.50;;;;;;;;;;4938084;28;109490;-66
2022/01/17 10:36:22;;;;;;;38.65;4.35;;;;;;;;;;4944552;28;108619;-66
2022/01/17 10:39:04;;;;;;;31.77;3.50;;;;;;;;;;4934532;28;107520;-70
2022/01/17 10:41:32;;;;;;;22.65;3.40;;;;;;;;;;4946369;28;106430;-69
2022/01/17 10:43:58;;;;;;;31.23;4.00;;;;;;;;;;4945476;28;107344;-67
2022/01/17 10:46:26;;;;;;;40.63;4.00;;;;;;;;;;4929574;28;109556;-67
2022/01/17 10:48:54;;;;;;;34.08;4.00;;;;;;;;;;4932185;28;106704;-67
2022/01/17 10:51:26;;;;;;;31.23;3.63;;;;;;;;;;4944967;28;107961;-68
2022/01/17 10:53:53;;;;;;;36.05;4.85;;;;;;;;;;4946272;28;106218;-67
2022/01/17 10:56:22;;;;;;;32.38;6.10;;;;;;;;;;4947654;28;106114;-67
2022/01/17 10:58:49;;;;;;;;;;;;;;;;;;4938959;28;107708;-69
2022/01/17 11:01:16;;;;;;;29.75;4.75;;;;;;;;;;4946757;28;107207;-67
2022/01/17 11:03:44;;;;;;;23.85;3.47;;;;;;;;;;4946127;28;106847;-67
2022/01/17 11:06:13;;;;;;;28.75;3.75;;;;;;;;;;4944150;28;106546;-68
2022/01/17 11:08:41;;;;;;;30.23;3.78;;;;;;;;;;4957968;28;106424;-69
2022/01/17 11:11:08;;;;;;;23.92;3.90;;;;;;;;;;4932966;28;109946;-68
2022/01/17 11:13:38;;;;;;;29.73;3.17;;;;;;;;;;4942534;28;109226;-68
2022/01/17 11:16:08;;;;;;;21.80;3.15;;;;;;;;;;4947626;28;106866;-68
2022/01/17 11:18:36;;;;;;;30.48;3.33;;;;;;;;;;4955609;28;107592;-67
2022/01/17 11:21:06;;;;;;;23.65;2.83;;;;;;;;;;4954516;28;106376;-67
2022/01/17 11:23:32;;;;;;;;;;;;;;;;;;4960921;28;107695;-67
2022/01/17 11:25:58;;;;;;;26.77;3.63;;;;;;;;;;4955060;28;134320;-68
2022/01/17 11:28:26;;;;;;;33.45;3.58;;;;;;;;;;4939366;28;105972;-68
2022/01/17 11:30:56;;;;;;;27.02;3.28;;;;;;;;;;4932974;28;106794;-68
2022/01/17 11:33:24;;;;;;;26.90;3.65;;;;;;;;;;4959386;28;106089;-69
2022/01/17 11:35:53;;;;;;;24.10;3.10;;;;;;;;;;4953403;28;107777;-67
2022/01/17 11:38:27;;;;;;;22.27;3.10;;;;;;;;;;4942399;28;110589;-67
2022/01/17 11:40:54;;;;;;;34.92;3.72;;;;;;;;;;4951388;28;106254;-67
2022/01/17 11:43:22;;;;;;;24.38;3.35;;;;;;;;;;4964113;28;106342;-69
2022/01/17 11:45:51;;;;;;;23.50;3.55;;;;;;;;;;4954374;28;107495;-69
2022/01/17 11:48:20;;;;;;;24.50;2.90;;;;;;;;;;4950182;28;107114;-67
2022/01/17 11:50:49;;;;;;;25.25;3.75;;;;;;;;;;4938697;28;108648;-69
2022/01/17 11:53:15;;;;;;;28.83;3.15;;;;;;;;;;4966014;28;107475;-68
2022/01/17 11:55:46;;;;;;;23.15;2.90;;;;;;;;;;4961126;28;106348;-65
2022/01/17 11:58:15;;;;;;;31.00;3.03;;;;;;;;;;4951988;28;107014;-66
2022/01/17 12:00:42;;;;;;;29.70;4.55;;;;;;;;;;4958389;28;106381;-68
2022/01/17 12:03:22;;;;;;;29.55;3.65;;;;;;;;;;4944704;28;106414;-67
2022/01/17 12:05:48;;;;;;;22.40;3.80;;;;;;;;;;4935743;28;107573;-65
2022/01/17 12:08:19;;;;;;;22.55;2.72;;;;;;;;;;4956853;28;106480;-66
2022/01/17 12:10:47;;;;;;;24.08;3.35;;;;;;;;;;4959260;28;106341;-67
2022/01/17 12:13:15;;;;;;;32.90;5.22;;;;;;;;;;4955923;28;106610;-66
2022/01/17 12:16:18;;;;;;;24.75;3.47;;;;;;;;;;4963386;28;105753;-66
2022/01/17 12:18:47;;;;;;;34.33;3.88;;;;;;;;;;4947439;28;107146;-66
2022/01/17 12:21:17;;;;;;;25.90;4.45;;;;;;;;;;4960194;28;106227;-67
2022/01/17 12:23:44;;;;;;;29.33;4.53;;;;;;;;;;4931231;28;107442;-66
2022/01/17 12:26:29;;;;;;;31.73;3.08;;;;;;;;;;4953363;28;107772;-66
2022/01/17 12:28:57;;;;;;;23.10;3.58;;;;;;;;;;4950642;28;106957;-66
2022/01/17 12:31:37;;;;;;;28.30;3.40;;;;;;;;;;4959180;28;106404;-67
2022/01/17 12:34:15;;;;;;;22.67;2.83;;;;;;;;;;4949012;28;107810;-67
2022/01/17 12:36:42;;;;;;;31.45;3.80;;;;;;;;;;4963067;28;106012;-66
2022/01/17 12:39:10;;;;;;;22.02;3.90;;;;;;;;;;4944473;28;106545;-67
2022/01/17 12:41:38;;;;;;;25.05;3.25;;;;;;;;;;4946859;28;106046;-67
2022/01/17 12:44:18;;;;;;;30.73;3.28;;;;;;;;;;4952494;28;107630;-66
2022/01/17 12:46:47;;;;;;;27.95;2.90;;;;;;;;;;4938909;28;108589;-67
2022/01/17 12:49:13;;;;;;;21.07;3.33;;;;;;;;;;4945887;28;106423;-69
2022/01/17 12:51:41;;;;;;;23.70;3.13;;;;;;;;;;4950211;28;105863;-68
2022/01/17 12:54:11;;;;;;;33.60;3.85;;;;;;;;;;4944823;28;107700;-70
2022/01/17 12:56:41;;;;;;;22.63;3.50;;;;;;;;;;4948407;28;106434;-68
2022/01/17 12:59:09;;;;;;;29.73;3.97;;;;;;;;;;4950701;28;107601;-68
2022/01/17 13:01:39;;;;;;;24.30;3.50;;;;;;;;;;4950864;28;106996;-67
2022/01/17 13:04:09;;;;;;;33.25;4.47;;;;;;;;;;4951616;28;109162;-67
2022/01/17 13:06:35;;;;;;;21.55;3.45;;;;;;;;;;4954473;28;107789;-68
2022/01/17 13:09:07;;;;;;;22.38;3.30;;;;;;;;;;4947335;28;105565;-67
2022/01/17 13:11:37;;;;;;;27.75;3.60;;;;;;;;;;4946527;28;107002;-68
2022/01/17 13:14:03;;;;;;;;;;;;;;;;;;4944442;28;108158;-67
2022/01/17 13:16:31;;;;;;;28.55;4.22;;;;;;;;;;4942509;28;121973;-67
2022/01/17 13:18:58;;;;;;;32.67;4.07;;;;;;;;;;4946774;28;107024;-67
2022/01/17 13:21:25;;;;;;;31.60;3.97;;;;;;;;;;4947156;28;107361;-68
2022/01/17 13:24:13;;;;;;;41.05;5.22;;;;;;;;;;4948251;28;106405;-67
2022/01/17 13:26:41;;;;;;;25.25;3.45;;;;;;;;;;4943490;28;107258;-68
2022/01/17 13:29:09;;;;;;;19.25;3.03;;;;;;;;;;4948946;28;105585;-67
2022/01/17 13:31:36;;;;;;;39.72;4.03;;;;;;;;;;4928008;28;106238;-68
2022/01/17 13:34:13;;;;;;;31.55;4.10;;;;;;;;;;4948305;28;106963;-67
2022/01/17 13:36:40;;;;;;;35.45;4.03;;;;;;;;;;4955183;28;105989;-67
2022/01/17 13:39:09;;;;;;;37.60;3.58;;;;;;;;;;4949201;28;106136;-68
2022/01/17 13:41:37;;;;;;;34.90;4.30;;;;;;;;;;4940777;28;107719;-68
2022/01/17 13:44:05;;;;;;;40.85;4.03;;;;;;;;;;4961971;28;107414;-68
2022/01/17 13:46:32;;;;;;;33.40;4.57;;;;;;;;;;4934950;28;109409;-68
2022/01/17 13:48:59;;;;;;;37.95;4.07;;;;;;;;;;4955703;28;105917;-68
2022/01/17 13:51:27;;;;;;;28.20;3.65;;;;;;;;;;4947407;28;106088;-68
2022/01/17 13:53:54;;;;;;;34.83;3.72;;;;;;;;;;4954390;28;109554;-67
2022/01/17 13:56:21;;;;;;;32.15;3.50;;;;;;;;;;4943428;28;106139;-68
2022/01/17 13:58:54;;;;;;;28.00;3.20;;;;;;;;;;4945638;28;106387;-66
2022/01/17 14:01:20;;;;;;;28.67;3.72;;;;;;;;;;4946563;28;106341;-67
2022/01/17 14:03:47;;;;;;;33.78;3.42;;;;;;;;;;4948556;28;106149;-68
2022/01/17 14:06:14;;;;;;;29.05;2.83;;;;;;;;;;4952845;28;106114;-67
2022/01/17 14:08:45;;;;;;;26.75;3.67;;;;;;;;;;4948643;28;106246;-67
2022/01/17 14:11:18;;;;;;;38.28;4.45;;;;;;;;;;4944016;28;106123;-67
2022/01/17 14:13:46;;;;;;;30.98;3.65;;;;;;;;;;4941549;28;106518;-68
2022/01/17 14:16:26;;;;;;;31.02;4.78;;;;;;;;;;4947707;28;106400;-67
2022/01/17 14:18:54;;;;;;;35.75;4.55;;;;;;;;;;4944382;28;106492;-68
2022/01/17 14:21:41;;;;;;;29.98;3.47;;;;;;;;;;4949769;28;106524;-67
2022/01/17 14:24:12;;;;;;;31.27;3.97;;;;;;;;;;4948755;28;106527;-68
2022/01/17 14:26:56;;;;;;;36.67;3.83;;;;;;;;;;4957534;28;106056;-67
2022/01/17 14:29:23;;;;;;;37.80;3.72;;;;;;;;;;4951260;28;107674;-67
2022/01/17 14:31:51;;;;;;;28.20;3.75;;;;;;;;;;4954190;28;106610;-67
2022/01/17 14:34:22;;;;;;;33.70;3.67;;;;;;;;;;4941176;28;106997;-68
2022/01/17 14:36:57;;;;;;;29.10;4.15;;;;;;;;;;4945228;28;107109;-68
2022/01/17 14:39:43;;;;;;;42.53;4.03;;;;;;;;;;4931919;28;107101;-69